createdAt,value
2023-05-19T00:02:00.280Z,10.52
2023-05-19T00:04:27.763Z,8.80
2023-05-19T00:06:54.743Z,9.73
2023-05-19T00:09:21.493Z,10.00
2023-05-19T00:11:48.287Z,8.40
2023-05-19T00:14:14.991Z,9.30
2023-05-19T00:16:42.372Z,10.97
2023-05-19T00:19:10.184Z,11.35
2023-05-19T00:21:40.418Z,8.52
2023-05-19T00:24:07.241Z,11.05
2023-05-19T00:26:34.005Z,8.68
2023-05-19T00:29:00.932Z,8.77
2023-05-19T00:31:27.514Z,8.88
2023-05-19T00:33:54.153Z,9.65
2023-05-19T00:36:20.764Z,9.88
2023-05-19T00:38:47.276Z,9.35
2023-05-19T00:41:13.885Z,9.60
2023-05-19T00:43:40.377Z,11.85
2023-05-19T00:46:07.560Z,10.05
2023-05-19T00:48:34.187Z,17.55
2023-05-19T00:51:05.203Z,8.82
2023-05-19T00:53:33.505Z,8.43
2023-05-19T00:56:00.818Z,9.02
2023-05-19T00:58:30.247Z,11.43
2023-05-19T01:01:03.864Z,10.00
2023-05-19T01:03:36.203Z,9.68
2023-05-19T01:06:07.369Z,12.37
2023-05-19T01:08:36.220Z,13.02
2023-05-19T01:11:03.216Z,8.43
2023-05-19T01:13:30.385Z,11.35
2023-05-19T01:16:02.536Z,9.93
2023-05-19T01:18:40.872Z,12.00
2023-05-19T01:21:46.582Z,8.77
2023-05-19T01:24:32.364Z,11.63
2023-05-19T01:27:24.180Z,9.18
2023-05-19T01:30:23.325Z,10.05
2023-05-19T01:32:53.432Z,9.50
2023-05-19T01:35:23.995Z,9.20
2023-05-19T01:37:54.413Z,9.40
2023-05-19T01:40:22.835Z,9.82
2023-05-19T01:42:52.467Z,9.43
2023-05-19T01:45:19.561Z,12.90
2023-05-19T01:47:49.810Z,12.55
2023-05-19T01:50:16.423Z,10.43
2023-05-19T01:52:43.150Z,10.75
2023-05-19T01:55:10.237Z,8.73
2023-05-19T01:58:11.511Z,9.77
2023-05-19T02:01:00.108Z,9.50
2023-05-19T02:03:44.614Z,9.30
2023-05-19T02:06:35.602Z,9.73
2023-05-19T02:09:24.302Z,10.68
2023-05-19T02:12:11.862Z,14.20
2023-05-19T02:15:06.085Z,9.35
2023-05-19T02:17:36.365Z,10.18
2023-05-19T02:20:05.078Z,11.82
2023-05-19T02:22:31.822Z,9.13
2023-05-19T02:24:58.477Z,14.03
2023-05-19T02:27:25.038Z,10.32
2023-05-19T02:29:52.365Z,10.55
2023-05-19T02:32:19.006Z,15.13
2023-05-19T02:34:45.711Z,10.07
2023-05-19T02:37:14.582Z,10.70
2023-05-19T02:39:42.082Z,15.05
2023-05-19T02:42:08.609Z,8.48
2023-05-19T02:44:35.253Z,12.05
2023-05-19T02:47:01.790Z,10.77
2023-05-19T02:49:30.974Z,10.23
2023-05-19T02:51:57.580Z,11.45
2023-05-19T02:54:24.142Z,8.80
2023-05-19T02:56:50.668Z,10.50
2023-05-19T02:59:17.183Z,10.30
2023-05-19T03:01:43.713Z,10.33
2023-05-19T03:04:10.465Z,11.90
2023-05-19T03:06:37.683Z,10.23
2023-05-19T03:09:04.191Z,13.18
2023-05-19T03:11:30.975Z,10.57
2023-05-19T03:13:58.593Z,9.80
2023-05-19T03:16:25.147Z,9.07
2023-05-19T03:18:52.286Z,9.50
2023-05-19T03:21:18.803Z,11.25
2023-05-19T03:23:45.486Z,11.68
2023-05-19T03:26:11.965Z,12.73
2023-05-19T03:28:38.528Z,9.77
2023-05-19T03:31:05.092Z,10.30
2023-05-19T03:33:31.735Z,10.98
2023-05-19T03:35:59.032Z,11.95
2023-05-19T03:38:25.694Z,10.60
2023-05-19T03:40:53.528Z,10.30
2023-05-19T03:43:19.973Z,13.55
2023-05-19T03:45:46.596Z,10.90
2023-05-19T03:48:13.703Z,11.88
2023-05-19T03:50:40.239Z,11.00
2023-05-19T03:53:06.812Z,9.88
2023-05-19T03:55:33.765Z,10.68
2023-05-19T03:58:00.301Z,10.50
2023-05-19T04:00:26.892Z,11.13
2023-05-19T04:02:53.493Z,10.37
2023-05-19T04:05:20.181Z,10.60
2023-05-19T04:07:46.871Z,12.50
2023-05-19T04:10:13.649Z,10.90
2023-05-19T04:12:40.206Z,12.45
2023-05-19T04:15:07.326Z,17.57
2023-05-19T04:17:34.189Z,12.43
2023-05-19T04:20:01.106Z,10.52
2023-05-19T04:22:27.870Z,11.63
2023-05-19T04:24:55.010Z,10.80
2023-05-19T04:27:21.941Z,19.03
2023-05-19T04:29:49.605Z,13.45
2023-05-19T04:32:18.122Z,10.60
2023-05-19T04:34:47.604Z,11.52
2023-05-19T04:37:16.213Z,13.85
2023-05-19T04:39:45.184Z,14.87
2023-05-19T04:42:12.028Z,10.77
2023-05-19T04:44:42.374Z,10.82
2023-05-19T04:47:10.372Z,12.68
2023-05-19T04:49:40.041Z,11.50
2023-05-19T04:52:10.718Z,10.30
2023-05-19T04:54:38.301Z,11.25
2023-05-19T04:57:05.657Z,16.38
2023-05-19T04:59:32.436Z,11.27
2023-05-19T05:01:58.972Z,11.77
2023-05-19T05:04:26.024Z,19.30
2023-05-19T05:06:52.512Z,13.73
2023-05-19T05:09:19.977Z,12.18
2023-05-19T05:11:46.990Z,12.15
2023-05-19T05:14:13.923Z,11.82
2023-05-19T05:16:40.865Z,9.73
2023-05-19T05:19:07.879Z,11.23
2023-05-19T05:21:34.724Z,12.77
2023-05-19T05:24:01.505Z,11.07
2023-05-19T05:26:33.248Z,11.18
2023-05-19T05:28:59.788Z,12.07
2023-05-19T05:31:26.559Z,11.23
2023-05-19T05:33:53.268Z,11.75
2023-05-19T05:36:19.858Z,11.35
2023-05-19T05:38:46.369Z,11.50
2023-05-19T05:41:12.949Z,12.43
2023-05-19T05:43:39.537Z,11.70
2023-05-19T05:46:06.112Z,11.45
2023-05-19T05:48:33.231Z,12.27
2023-05-19T05:51:00.269Z,11.82
2023-05-19T05:53:30.990Z,10.80
2023-05-19T05:55:58.039Z,11.32
2023-05-19T05:58:24.605Z,12.52
2023-05-19T06:00:53.443Z,10.32
2023-05-19T06:03:24.186Z,12.25
2023-05-19T06:05:51.075Z,10.80
2023-05-19T06:08:17.959Z,12.80
2023-05-19T06:10:47.092Z,11.15
2023-05-19T06:13:14.012Z,11.45
2023-05-19T06:15:41.188Z,10.38
2023-05-19T06:18:07.846Z,10.83
2023-05-19T06:20:34.631Z,11.73
2023-05-19T06:23:01.347Z,18.23
2023-05-19T06:25:27.848Z,20.30
2023-05-19T06:27:54.583Z,15.18
2023-05-19T06:30:22.170Z,12.30
2023-05-19T06:32:48.925Z,10.05
2023-05-19T06:35:15.536Z,10.60
2023-05-19T06:37:42.240Z,9.93
2023-05-19T06:40:09.389Z,11.35
2023-05-19T06:42:35.901Z,12.53
2023-05-19T06:45:02.430Z,9.98
2023-05-19T06:47:29.008Z,11.38
2023-05-19T06:49:55.931Z,10.50
2023-05-19T06:52:23.022Z,8.30
2023-05-19T06:54:50.149Z,12.67
2023-05-19T06:57:16.764Z,17.75
2023-05-19T06:59:43.636Z,11.20
2023-05-19T07:02:10.244Z,13.82
2023-05-19T07:04:36.878Z,10.15
2023-05-19T07:07:03.508Z,16.23
2023-05-19T07:09:29.994Z,8.52
2023-05-19T07:11:56.575Z,15.18
2023-05-19T07:14:23.384Z,7.72
2023-05-19T07:16:50.004Z,8.50
2023-05-19T07:19:16.973Z,10.60
2023-05-19T07:21:43.537Z,8.63
2023-05-19T07:24:10.116Z,6.95
2023-05-19T07:26:36.653Z,9.75
2023-05-19T07:29:03.304Z,8.23
2023-05-19T07:31:29.885Z,9.10
2023-05-19T07:33:57.266Z,10.18
2023-05-19T07:36:23.831Z,9.02
2023-05-19T07:38:50.608Z,10.02
2023-05-19T07:41:17.164Z,8.85
2023-05-19T07:43:43.760Z,8.10
2023-05-19T07:46:10.294Z,8.48
2023-05-19T07:48:37.172Z,9.10
2023-05-19T07:51:03.986Z,8.60
2023-05-19T07:53:30.601Z,7.30
2023-05-19T07:55:58.533Z,13.27
2023-05-19T07:58:25.393Z,5.93
2023-05-19T08:00:53.262Z,7.97
2023-05-19T08:03:20.804Z,10.40
2023-05-19T08:05:47.687Z,6.13
2023-05-19T08:08:16.957Z,6.17
2023-05-19T08:10:43.660Z,9.32
2023-05-19T08:13:10.442Z,9.52
2023-05-19T08:15:37.054Z,5.03
2023-05-19T08:18:05.364Z,8.40
2023-05-19T08:20:32.842Z,6.83
2023-05-19T08:22:59.900Z,8.18
2023-05-19T08:25:26.526Z,5.25
2023-05-19T08:27:53.054Z,8.38
2023-05-19T08:30:19.733Z,7.63
2023-05-19T08:32:46.472Z,11.03
2023-05-19T08:35:12.983Z,5.82
2023-05-19T08:37:39.555Z,8.18
2023-05-19T08:40:07.171Z,4.82
2023-05-19T08:42:33.906Z,5.03
2023-05-19T08:45:02.040Z,4.93
2023-05-19T08:47:28.851Z,7.30
2023-05-19T08:50:05.205Z,6.50
2023-05-19T08:52:47.870Z,5.20
2023-05-19T08:55:21.724Z,6.97
2023-05-19T08:57:49.660Z,4.47
2023-05-19T09:00:17.229Z,7.07
2023-05-19T09:02:55.079Z,5.60
2023-05-19T09:05:28.346Z,5.82
2023-05-19T09:07:55.116Z,6.32
2023-05-19T09:10:21.845Z,6.40
2023-05-19T09:12:49.636Z,6.22
2023-05-19T09:15:19.112Z,5.22
2023-05-19T09:17:48.088Z,4.47
2023-05-19T09:20:16.775Z,3.58
2023-05-19T09:22:50.695Z,4.17
2023-05-19T09:25:22.919Z,5.90
2023-05-19T09:27:50.575Z,5.75
2023-05-19T09:30:17.963Z,4.80
2023-05-19T09:32:45.489Z,4.03
2023-05-19T09:35:16.993Z,5.27
2023-05-19T09:37:44.071Z,3.88
2023-05-19T09:40:11.916Z,9.60
2023-05-19T09:42:40.574Z,6.18
2023-05-19T09:45:09.360Z,3.92
2023-05-19T09:47:38.173Z,6.27
2023-05-19T09:50:09.257Z,6.65
2023-05-19T09:52:37.245Z,4.53
2023-05-19T09:55:05.219Z,4.15
2023-05-19T09:57:38.610Z,7.72
2023-05-19T10:00:15.836Z,8.93
2023-05-19T10:02:46.997Z,6.28
2023-05-19T10:05:17.820Z,5.55
2023-05-19T10:07:45.786Z,5.82
2023-05-19T10:10:13.971Z,3.42
2023-05-19T10:12:41.542Z,6.67
2023-05-19T10:15:12.730Z,5.40
2023-05-19T10:17:40.718Z,4.72
2023-05-19T10:20:17.505Z,8.43
2023-05-19T10:22:46.257Z,5.93
2023-05-19T10:25:18.744Z,4.00
2023-05-19T10:27:53.252Z,7.55
2023-05-19T10:30:30.176Z,7.68
2023-05-19T10:32:59.365Z,3.78
2023-05-19T10:35:56.872Z,4.93
2023-05-19T10:38:42.928Z,6.87
2023-05-19T10:41:35.082Z,5.28
2023-05-19T10:44:09.975Z,3.33
2023-05-19T10:46:36.667Z,4.75
2023-05-19T10:49:03.303Z,6.57
2023-05-19T10:51:34.004Z,5.53
2023-05-19T10:54:10.972Z,9.48
2023-05-19T10:56:42.403Z,4.72
2023-05-19T10:59:32.982Z,7.40
2023-05-19T11:02:04.834Z,3.53
2023-05-19T11:04:48.861Z,6.53
2023-05-19T11:07:19.539Z,8.13
2023-05-19T11:09:51.566Z,3.60
2023-05-19T11:12:24.784Z,7.15
2023-05-19T11:14:55.507Z,4.65
2023-05-19T11:17:25.389Z,4.43
2023-05-19T11:19:56.516Z,4.28
2023-05-19T11:22:29.276Z,3.45
2023-05-19T11:24:56.469Z,4.07
2023-05-19T11:27:35.544Z,4.32
2023-05-19T11:30:14.869Z,6.17
2023-05-19T11:32:44.569Z,3.85
2023-05-19T11:35:11.319Z,4.28
2023-05-19T11:37:37.935Z,5.03
2023-05-19T11:40:09.392Z,3.33
2023-05-19T11:42:37.094Z,5.77
2023-05-19T11:45:06.964Z,3.80
2023-05-19T11:47:42.086Z,4.72
2023-05-19T11:50:13.988Z,14.65
2023-05-19T11:52:44.976Z,7.05
2023-05-19T11:55:19.065Z,2.87
2023-05-19T11:58:04.541Z,4.53
2023-05-19T12:00:39.236Z,5.05
2023-05-19T12:03:06.868Z,4.82
2023-05-19T12:05:39.910Z,6.78
2023-05-19T12:08:08.867Z,7.40
2023-05-19T12:10:35.905Z,4.40
2023-05-19T12:13:03.652Z,5.00
2023-05-19T12:15:32.553Z,3.78
2023-05-19T12:18:00.969Z,5.47
2023-05-19T12:20:29.268Z,4.50
2023-05-19T12:22:56.355Z,5.45
2023-05-19T12:25:23.662Z,5.90
2023-05-19T12:27:52.735Z,4.25
2023-05-19T12:30:26.131Z,6.95
2023-05-19T12:32:53.962Z,4.13
2023-05-19T12:35:20.619Z,3.15
2023-05-19T12:37:49.133Z,5.18
2023-05-19T12:40:16.888Z,4.80
2023-05-19T12:42:48.170Z,6.65
2023-05-19T12:45:15.273Z,4.63
2023-05-19T12:47:41.885Z,7.32
2023-05-19T12:50:10.341Z,5.90
2023-05-19T12:53:03.110Z,4.32
2023-05-19T12:55:30.029Z,3.22
2023-05-19T12:57:58.164Z,4.73
2023-05-19T13:00:28.114Z,3.33
2023-05-19T13:03:08.650Z,5.95
2023-05-19T13:05:40.560Z,4.60
2023-05-19T13:08:09.386Z,2.42
2023-05-19T13:10:38.408Z,4.53
2023-05-19T13:13:05.873Z,3.10
2023-05-19T13:15:37.645Z,5.35
2023-05-19T13:18:06.758Z,9.73
2023-05-19T13:20:34.394Z,5.15
2023-05-19T13:23:01.451Z,3.30
2023-05-19T13:25:28.490Z,4.00
2023-05-19T13:27:56.689Z,3.25
2023-05-19T13:30:23.800Z,3.92
2023-05-19T13:32:52.475Z,6.38
2023-05-19T13:35:19.738Z,4.83
2023-05-19T13:37:46.413Z,8.00
2023-05-19T13:40:13.513Z,3.55
2023-05-19T13:42:40.812Z,5.10
2023-05-19T13:45:07.952Z,4.30
2023-05-19T13:47:34.499Z,2.83
2023-05-19T13:50:02.318Z,4.78
2023-05-19T13:52:30.484Z,3.05
2023-05-19T13:54:57.354Z,6.93
2023-05-19T13:57:25.459Z,3.47
2023-05-19T14:00:02.044Z,5.30
2023-05-19T14:02:29.969Z,3.63
2023-05-19T14:04:56.832Z,2.88
2023-05-19T14:07:23.628Z,3.80
2023-05-19T14:09:51.205Z,3.47
2023-05-19T14:12:17.902Z,6.10
2023-05-19T14:14:44.696Z,4.72
2023-05-19T14:17:12.262Z,4.60
2023-05-19T14:19:38.927Z,4.07
2023-05-19T14:22:05.969Z,4.55
2023-05-19T14:24:32.582Z,5.13
2023-05-19T14:26:59.111Z,4.03
2023-05-19T14:29:25.642Z,3.45
2023-05-19T14:31:52.281Z,3.58
2023-05-19T14:34:21.136Z,4.53
2023-05-19T14:36:48.743Z,7.10
2023-05-19T14:39:15.562Z,4.22
2023-05-19T14:41:42.308Z,4.22
2023-05-19T14:44:08.847Z,3.90
2023-05-19T14:46:35.545Z,5.43
2023-05-19T14:49:03.284Z,3.33
2023-05-19T14:51:29.812Z,6.43
2023-05-19T14:53:56.460Z,3.72
2023-05-19T14:56:23.024Z,3.50
2023-05-19T14:58:49.531Z,4.97
2023-05-19T15:01:16.047Z,3.50
2023-05-19T15:03:42.684Z,4.15
2023-05-19T15:06:10.750Z,3.35
2023-05-19T15:08:37.857Z,5.97
2023-05-19T15:11:04.637Z,8.15
2023-05-19T15:13:31.119Z,7.33
2023-05-19T15:16:12.300Z,3.83
2023-05-19T15:18:42.680Z,5.38
2023-05-19T15:21:09.293Z,5.13
2023-05-19T15:23:35.806Z,3.03
2023-05-19T15:26:02.445Z,3.57
2023-05-19T15:28:29.012Z,4.93
2023-05-19T15:30:55.586Z,3.28
2023-05-19T15:33:22.158Z,3.03
2023-05-19T15:35:51.701Z,9.40
2023-05-19T15:38:21.165Z,5.10
2023-05-19T15:40:47.730Z,4.72
2023-05-19T15:43:14.397Z,4.78
2023-05-19T15:45:41.040Z,3.90
2023-05-19T15:48:07.865Z,7.93
2023-05-19T15:50:34.709Z,3.60
2023-05-19T15:53:01.545Z,3.90
2023-05-19T15:55:28.141Z,3.00
2023-05-19T15:57:54.670Z,3.63
2023-05-19T16:00:21.510Z,6.82
2023-05-19T16:02:48.219Z,8.30
2023-05-19T16:05:14.785Z,4.30
2023-05-19T16:07:42.110Z,4.60
2023-05-19T16:10:09.139Z,3.95
2023-05-19T16:12:36.586Z,3.83
2023-05-19T16:15:03.729Z,4.80
2023-05-19T16:17:30.471Z,5.93
2023-05-19T16:19:57.236Z,4.80
2023-05-19T16:22:24.865Z,2.97
2023-05-19T16:24:52.358Z,6.00
2023-05-19T16:27:19.197Z,6.80
2023-05-19T16:29:45.939Z,3.42
2023-05-19T16:32:12.902Z,4.45
2023-05-19T16:34:39.765Z,3.20
2023-05-19T16:37:06.607Z,6.38
2023-05-19T16:39:35.964Z,3.20
2023-05-19T16:42:03.330Z,2.90
2023-05-19T16:44:29.884Z,6.95
2023-05-19T16:46:56.410Z,2.90
2023-05-19T16:49:22.946Z,4.53
2023-05-19T16:51:49.754Z,3.17
2023-05-19T16:54:16.266Z,3.80
2023-05-19T16:56:42.754Z,3.13
2023-05-19T16:59:09.610Z,9.27
2023-05-19T17:01:36.223Z,4.32
2023-05-19T17:04:02.817Z,2.43
2023-05-19T17:06:29.382Z,5.20
2023-05-19T17:08:55.980Z,5.60
2023-05-19T17:11:22.878Z,6.88
2023-05-19T17:13:49.464Z,4.55
2023-05-19T17:16:16.121Z,2.67
2023-05-19T17:18:43.832Z,5.57
2023-05-19T17:21:10.692Z,8.65
2023-05-19T17:23:37.926Z,3.95
2023-05-19T17:26:04.945Z,4.55
2023-05-19T17:28:31.750Z,6.23
2023-05-19T17:30:58.453Z,3.63
2023-05-19T17:33:25.015Z,3.15
2023-05-19T17:35:51.704Z,4.90
2023-05-19T17:38:18.244Z,5.60
2023-05-19T17:40:44.816Z,4.93
2023-05-19T17:43:11.371Z,3.10
2023-05-19T17:45:37.955Z,4.25
2023-05-19T17:48:05.002Z,4.43
2023-05-19T17:50:31.893Z,4.18
2023-05-19T17:52:58.880Z,2.53
2023-05-19T17:55:30.109Z,3.22
2023-05-19T17:57:57.380Z,3.88
2023-05-19T18:00:25.178Z,2.80
2023-05-19T18:02:52.393Z,3.50
2023-05-19T18:05:19.403Z,3.43
2023-05-19T18:07:46.258Z,5.75
2023-05-19T18:10:15.384Z,5.43
2023-05-19T18:12:41.983Z,5.82
2023-05-19T18:15:08.854Z,5.55
2023-05-19T18:17:35.520Z,5.40
2023-05-19T18:20:02.377Z,4.53
2023-05-19T18:22:28.982Z,2.58
2023-05-19T18:24:56.204Z,4.25
2023-05-19T18:27:22.714Z,6.03
2023-05-19T18:29:49.230Z,5.03
2023-05-19T18:32:17.740Z,4.22
2023-05-19T18:34:44.387Z,5.20
2023-05-19T18:37:10.925Z,6.15
2023-05-19T18:39:37.527Z,4.00
2023-05-19T18:42:04.180Z,5.17
2023-05-19T18:44:30.762Z,4.32
2023-05-19T18:46:57.255Z,3.65
2023-05-19T18:49:25.028Z,5.88
2023-05-19T18:51:51.890Z,3.60
2023-05-19T18:54:19.458Z,4.93
2023-05-19T18:56:46.087Z,3.92
2023-05-19T18:59:12.800Z,4.53
2023-05-19T19:01:39.537Z,4.25
2023-05-19T19:04:06.240Z,5.38
2023-05-19T19:06:32.833Z,5.80
2023-05-19T19:08:59.337Z,4.43
2023-05-19T19:11:26.291Z,4.38
2023-05-19T19:13:55.403Z,5.50
2023-05-19T19:16:22.397Z,4.38
2023-05-19T19:18:49.074Z,6.43
2023-05-19T19:21:15.691Z,5.43
2023-05-19T19:23:42.250Z,7.95
2023-05-19T19:26:09.494Z,8.88
2023-05-19T19:28:36.503Z,5.97
2023-05-19T19:31:03.264Z,7.50
2023-05-19T19:33:29.824Z,5.95
2023-05-19T19:35:56.512Z,5.20
2023-05-19T19:38:23.173Z,6.93
2023-05-19T19:40:51.845Z,5.18
2023-05-19T19:43:18.624Z,6.83
2023-05-19T19:45:45.171Z,6.55
2023-05-19T19:48:12.182Z,5.13
2023-05-19T19:50:38.786Z,7.78
2023-05-19T19:53:05.399Z,4.65
2023-05-19T19:55:31.973Z,7.40
2023-05-19T19:57:58.560Z,5.13
2023-05-19T20:00:25.135Z,5.88
2023-05-19T20:03:04.288Z,4.85
2023-05-19T20:05:31.813Z,5.35
2023-05-19T20:07:58.491Z,5.73
2023-05-19T20:10:25.097Z,4.28
2023-05-19T20:12:51.938Z,5.35
2023-05-19T20:15:18.741Z,5.10
2023-05-19T20:17:45.935Z,4.65
2023-05-19T20:20:12.921Z,5.33
2023-05-19T20:22:39.499Z,5.38
2023-05-19T20:25:06.923Z,5.43
2023-05-19T20:27:33.584Z,5.63
2023-05-19T20:30:00.200Z,5.57
2023-05-19T20:32:26.823Z,5.67
2023-05-19T20:34:53.978Z,5.28
2023-05-19T20:37:22.090Z,5.57
2023-05-19T20:39:48.682Z,8.13
2023-05-19T20:42:15.195Z,5.35
2023-05-19T20:44:41.929Z,6.43
2023-05-19T20:47:08.876Z,6.00
2023-05-19T20:49:35.485Z,7.57
2023-05-19T20:52:02.220Z,6.45
2023-05-19T20:54:28.799Z,7.35
2023-05-19T20:56:55.487Z,10.33
2023-05-19T20:59:22.109Z,6.50
2023-05-19T21:01:48.686Z,5.15
2023-05-19T21:04:15.349Z,6.28
2023-05-19T21:06:41.890Z,5.95
2023-05-19T21:09:08.767Z,7.10
2023-05-19T21:11:35.503Z,8.23
2023-05-19T21:14:04.174Z,6.40
2023-05-19T21:16:31.586Z,7.60
2023-05-19T21:18:58.332Z,5.75
2023-05-19T21:21:26.217Z,7.00
2023-05-19T21:23:52.802Z,6.22
2023-05-19T21:26:19.264Z,6.78
2023-05-19T21:28:46.173Z,6.63
2023-05-19T21:31:12.804Z,6.82
2023-05-19T21:33:39.401Z,6.27
2023-05-19T21:36:06.116Z,6.75
2023-05-19T21:38:32.640Z,6.70
2023-05-19T21:40:59.209Z,11.13
2023-05-19T21:43:25.976Z,7.95
2023-05-19T21:45:52.577Z,6.53
2023-05-19T21:48:19.252Z,8.00
2023-05-19T21:50:45.777Z,6.75
2023-05-19T21:53:12.271Z,6.20
2023-05-19T21:55:39.392Z,9.48
2023-05-19T21:58:06.178Z,7.73
2023-05-19T22:00:33.034Z,10.32
2023-05-19T22:03:01.041Z,12.52
2023-05-19T22:05:29.777Z,7.32
2023-05-19T22:07:56.500Z,8.25
2023-05-19T22:10:23.169Z,10.93
2023-05-19T22:12:49.898Z,7.18
2023-05-19T22:15:16.444Z,8.02
2023-05-19T22:17:43.182Z,9.20
2023-05-19T22:20:10.220Z,12.00
2023-05-19T22:22:36.739Z,8.70
2023-05-19T22:25:03.881Z,9.10
2023-05-19T22:27:30.687Z,7.18
2023-05-19T22:29:57.328Z,7.95
2023-05-19T22:32:24.081Z,7.05
2023-05-19T22:34:50.879Z,9.10
2023-05-19T22:37:17.469Z,7.35
2023-05-19T22:39:44.160Z,6.78
2023-05-19T22:42:11.089Z,7.47
2023-05-19T22:44:37.619Z,10.20
2023-05-19T22:47:04.310Z,7.43
2023-05-19T22:49:30.915Z,7.40
2023-05-19T22:51:57.435Z,8.63
2023-05-19T22:54:24.023Z,6.85
2023-05-19T22:56:50.590Z,7.88
2023-05-19T22:59:18.029Z,7.30
2023-05-19T23:01:46.505Z,7.75
2023-05-19T23:04:13.953Z,7.88
2023-05-19T23:06:41.598Z,5.85
2023-05-19T23:09:08.138Z,6.93
2023-05-19T23:11:35.864Z,7.27
2023-05-19T23:14:02.535Z,8.20
2023-05-19T23:16:29.102Z,10.75
2023-05-19T23:18:55.685Z,9.38
2023-05-19T23:21:22.278Z,7.03
2023-05-19T23:23:49.693Z,11.60
2023-05-19T23:26:16.237Z,7.07
2023-05-19T23:28:43.189Z,9.05
2023-05-19T23:31:10.424Z,8.95
2023-05-19T23:33:37.041Z,6.43
2023-05-19T23:36:08.138Z,9.17
2023-05-19T23:38:35.534Z,10.60
2023-05-19T23:41:02.109Z,7.75
2023-05-19T23:43:28.804Z,12.10
2023-05-19T23:45:55.517Z,7.53
2023-05-19T23:48:22.012Z,10.50
2023-05-19T23:50:48.586Z,9.57
2023-05-19T23:53:15.150Z,7.93
2023-05-19T23:55:42.273Z,7.35
2023-05-19T23:58:08.884Z,6.93
